createdAt,value
2023-03-06T00:01:06.951Z,18.55
2023-03-06T00:03:36.645Z,13.88
2023-03-06T00:06:06.672Z,16.05
2023-03-06T00:08:36.322Z,16.67
2023-03-06T00:11:07.293Z,13.75
2023-03-06T00:13:36.713Z,15.73
2023-03-06T00:16:08.306Z,19.02
2023-03-06T00:18:37.659Z,17.60
2023-03-06T00:21:10.463Z,15.48
2023-03-06T00:26:11.736Z,14.63
2023-03-06T00:28:41.187Z,17.75
2023-03-06T00:31:10.570Z,17.10
2023-03-06T00:33:39.902Z,15.20
2023-03-06T00:36:10.092Z,17.65
2023-03-06T00:38:39.622Z,24.10
2023-03-06T00:41:12.194Z,21.00
2023-03-06T00:43:41.650Z,19.73
2023-03-06T00:46:11.115Z,19.02
2023-03-06T00:50:30.070Z,20.05
2023-03-06T00:52:59.490Z,27.73
2023-03-06T00:55:29.613Z,20.92
2023-03-06T00:57:58.992Z,19.40
2023-03-06T01:00:28.488Z,22.75
2023-03-06T01:02:57.715Z,20.45
2023-03-06T01:05:28.495Z,22.02
2023-03-06T01:07:57.852Z,21.75
2023-03-06T01:10:27.506Z,26.30
2023-03-06T01:12:57.698Z,22.05
2023-03-06T01:15:27.810Z,22.38
2023-03-06T01:17:57.647Z,19.52
2023-03-06T01:20:28.732Z,20.13
2023-03-06T01:22:58.262Z,19.17
2023-03-06T01:25:28.436Z,17.02
2023-03-06T01:27:57.745Z,18.85
2023-03-06T01:30:27.110Z,17.63
2023-03-06T01:32:56.552Z,17.77
2023-03-06T01:35:25.911Z,18.80
2023-03-06T01:37:56.735Z,15.38
2023-03-06T01:40:26.292Z,16.80
2023-03-06T01:42:56.206Z,14.05
2023-03-06T01:46:25.856Z,20.92
2023-03-06T01:48:58.953Z,17.00
2023-03-06T01:51:34.074Z,15.00
2023-03-06T01:54:10.889Z,14.55
2023-03-06T01:56:42.479Z,13.32
2023-03-06T01:59:12.020Z,14.98
2023-03-06T02:01:42.288Z,14.90
2023-03-06T02:04:12.792Z,16.33
2023-03-06T02:06:44.541Z,18.75
2023-03-06T02:09:16.761Z,14.75
2023-03-06T02:11:46.536Z,15.98
2023-03-06T02:14:19.159Z,13.80
2023-03-06T02:16:48.651Z,16.13
2023-03-06T02:19:36.931Z,13.10
2023-03-06T02:22:06.547Z,21.92
2023-03-06T02:24:46.974Z,27.10
2023-03-06T02:27:18.952Z,26.20
2023-03-06T02:29:49.111Z,24.97
2023-03-06T02:32:18.573Z,29.45
2023-03-06T02:34:58.401Z,27.25
2023-03-06T02:37:30.074Z,22.17
2023-03-06T02:40:09.314Z,22.25
2023-03-06T02:42:40.081Z,20.30
2023-03-06T02:45:13.151Z,20.40
2023-03-06T02:47:42.408Z,19.65
2023-03-06T02:50:13.284Z,18.27
2023-03-06T02:52:42.698Z,16.58
2023-03-06T02:55:12.538Z,18.65
2023-03-06T02:57:43.547Z,16.40
2023-03-06T03:00:16.126Z,15.98
2023-03-06T03:02:46.406Z,19.42
2023-03-06T03:05:16.085Z,32.42
2023-03-06T03:07:45.600Z,36.50
2023-03-06T03:10:15.432Z,36.45
2023-03-06T03:12:46.445Z,31.40
2023-03-06T03:15:15.916Z,32.92
2023-03-06T03:17:45.582Z,21.23
2023-03-06T03:20:19.237Z,25.70
2023-03-06T03:22:51.394Z,20.20
2023-03-06T03:25:22.019Z,35.10
2023-03-06T03:27:53.306Z,29.67
2023-03-06T03:30:23.031Z,26.35
2023-03-06T03:32:52.376Z,30.02
2023-03-06T03:35:21.929Z,21.92
2023-03-06T03:37:52.837Z,13.85
2023-03-06T03:40:22.420Z,24.80
2023-03-06T03:42:53.295Z,26.42
2023-03-06T03:45:24.369Z,22.63
2023-03-06T03:47:53.810Z,20.77
2023-03-06T03:51:30.008Z,24.83
2023-03-06T03:53:59.419Z,16.98
2023-03-06T03:56:28.869Z,19.77
2023-03-06T03:58:58.443Z,16.85
2023-03-06T04:01:27.670Z,17.30
2023-03-06T04:03:57.106Z,20.48
2023-03-06T04:06:26.489Z,25.35
2023-03-06T04:08:57.637Z,27.33
2023-03-06T04:11:26.991Z,30.08
2023-03-06T04:13:56.249Z,17.52
2023-03-06T04:16:25.687Z,18.02
2023-03-06T04:18:55.277Z,19.95
2023-03-06T04:21:24.529Z,36.60
2023-03-06T04:23:53.808Z,39.03
2023-03-06T04:26:24.728Z,34.05
2023-03-06T04:28:55.759Z,34.95
2023-03-06T04:31:25.370Z,37.70
2023-03-06T04:33:55.486Z,30.02
2023-03-06T04:36:30.651Z,27.08
2023-03-06T04:39:00.816Z,24.95
2023-03-06T04:41:31.646Z,21.42
2023-03-06T04:44:01.351Z,22.13
2023-03-06T04:46:30.651Z,31.02
2023-03-06T04:49:00.047Z,25.33
2023-03-06T04:51:29.742Z,27.60
2023-03-06T04:53:59.327Z,22.05
2023-03-06T04:56:28.919Z,25.00
2023-03-06T04:58:59.943Z,23.92
2023-03-06T05:01:29.531Z,22.40
2023-03-06T05:03:59.094Z,18.67
2023-03-06T05:06:28.613Z,23.95
2023-03-06T05:08:58.030Z,26.90
2023-03-06T05:11:27.706Z,20.30
2023-03-06T05:13:58.505Z,20.05
2023-03-06T05:16:27.979Z,25.13
2023-03-06T05:18:57.436Z,22.02
2023-03-06T05:21:26.748Z,17.42
2023-03-06T05:23:56.185Z,24.45
2023-03-06T05:26:25.685Z,31.30
2023-03-06T05:28:55.551Z,33.95
2023-03-06T05:31:26.438Z,34.17
2023-03-06T05:33:55.835Z,29.00
2023-03-06T05:36:25.188Z,38.42
2023-03-06T05:38:54.828Z,35.72
2023-03-06T05:41:24.395Z,66.35
2023-03-06T05:43:57.178Z,50.63
2023-03-06T05:46:28.264Z,41.10
2023-03-06T05:48:58.121Z,37.53
2023-03-06T05:51:28.018Z,33.72
2023-03-06T05:53:57.499Z,25.75
2023-03-06T05:56:27.089Z,25.65
2023-03-06T05:58:56.473Z,22.60
2023-03-06T06:01:28.670Z,18.23
2023-03-06T06:03:58.117Z,19.98
2023-03-06T06:06:27.636Z,28.95
2023-03-06T06:08:56.951Z,31.60
2023-03-06T06:11:26.355Z,36.53
2023-03-06T06:13:55.716Z,35.78
2023-03-06T06:16:26.489Z,26.95
2023-03-06T06:18:55.811Z,35.05
2023-03-06T06:21:25.209Z,22.77
2023-03-06T06:23:54.435Z,24.42
2023-03-06T06:26:23.806Z,20.63
2023-03-06T06:28:53.150Z,44.15
2023-03-06T06:31:22.595Z,41.35
2023-03-06T06:33:53.475Z,28.90
2023-03-06T06:36:23.827Z,40.67
2023-03-06T06:38:53.612Z,27.88
2023-03-06T06:44:16.297Z,20.33
2023-03-06T06:51:32.449Z,16.48
2023-03-06T06:54:03.379Z,13.23
2023-03-06T06:56:32.821Z,14.52
2023-03-06T06:59:15.701Z,13.98
2023-03-06T07:01:46.068Z,14.65
2023-03-06T07:04:15.786Z,14.10
2023-03-06T07:06:46.965Z,19.98
2023-03-06T07:09:16.521Z,15.02
2023-03-06T07:11:46.016Z,13.80
2023-03-06T07:14:15.488Z,16.13
2023-03-06T07:16:44.890Z,14.77
2023-03-06T07:19:14.420Z,14.07
2023-03-06T07:21:45.431Z,15.80
2023-03-06T07:24:14.830Z,10.50
2023-03-06T07:26:48.708Z,14.90
2023-03-06T07:29:18.080Z,13.63
2023-03-06T07:31:48.140Z,12.05
2023-03-06T07:34:17.951Z,20.33
2023-03-06T07:36:48.856Z,12.52
2023-03-06T07:39:18.194Z,14.13
2023-03-06T07:41:47.688Z,13.63
2023-03-06T07:44:17.185Z,13.77
2023-03-06T07:46:46.637Z,13.80
2023-03-06T07:49:16.195Z,13.25
2023-03-06T07:51:45.618Z,13.00
2023-03-06T07:54:16.342Z,12.90
2023-03-06T07:56:45.720Z,14.70
2023-03-06T07:59:15.203Z,12.85
2023-03-06T08:01:44.569Z,16.13
2023-03-06T08:04:13.908Z,11.05
2023-03-06T08:06:43.338Z,35.05
2023-03-06T08:09:12.818Z,15.20
2023-03-06T08:11:45.478Z,11.75
2023-03-06T08:14:14.817Z,10.70
2023-03-06T08:16:44.165Z,12.98
2023-03-06T08:19:13.471Z,12.70
2023-03-06T08:21:42.793Z,11.57
2023-03-06T08:24:13.376Z,14.50
2023-03-06T08:26:44.723Z,13.30
2023-03-06T08:29:14.370Z,13.95
2023-03-06T08:31:45.595Z,12.07
2023-03-06T08:34:18.352Z,14.20
2023-03-06T08:36:47.986Z,11.75
2023-03-06T08:39:17.369Z,14.75
2023-03-06T08:41:48.341Z,17.27
2023-03-06T08:44:17.888Z,10.57
2023-03-06T08:46:47.269Z,15.55
2023-03-06T08:49:17.091Z,14.40
2023-03-06T08:51:46.623Z,17.02
2023-03-06T08:54:16.088Z,12.80
2023-03-06T08:56:47.040Z,14.38
2023-03-06T08:59:16.675Z,11.60
2023-03-06T09:01:46.827Z,13.35
2023-03-06T09:04:16.290Z,11.25
2023-03-06T09:06:46.539Z,12.30
2023-03-06T09:09:16.192Z,13.02
2023-03-06T09:11:47.232Z,14.65
2023-03-06T09:14:16.971Z,13.32
2023-03-06T09:16:46.337Z,16.02
2023-03-06T09:19:16.050Z,9.65
2023-03-06T09:21:45.378Z,11.93
2023-03-06T09:24:14.862Z,12.25
2023-03-06T09:26:46.659Z,11.55
2023-03-06T09:29:18.075Z,12.30
2023-03-06T09:31:47.758Z,15.23
2023-03-06T09:34:17.568Z,17.40
2023-03-06T09:36:56.631Z,14.45
2023-03-06T09:39:27.847Z,11.77
2023-03-06T09:41:58.799Z,11.48
2023-03-06T09:44:32.359Z,11.88
2023-03-06T09:47:45.462Z,12.15
2023-03-06T09:51:42.863Z,12.30
2023-03-06T09:54:16.004Z,9.57
2023-03-06T09:56:51.312Z,12.25
2023-03-06T09:59:24.874Z,11.85
2023-03-06T10:02:03.421Z,11.50
2023-03-06T10:04:40.898Z,10.57
2023-03-06T10:07:17.240Z,11.23
2023-03-06T10:09:54.044Z,12.90
2023-03-06T10:12:28.789Z,12.23
2023-03-06T10:15:13.688Z,16.13
2023-03-06T10:17:44.487Z,15.55
2023-03-06T10:20:27.610Z,12.63
2023-03-06T10:23:37.090Z,11.73
2023-03-06T10:26:17.197Z,10.35
2023-03-06T10:28:56.243Z,9.32
2023-03-06T10:31:27.399Z,11.98
2023-03-06T10:33:58.798Z,12.35
2023-03-06T10:36:31.013Z,9.55
2023-03-06T10:39:02.440Z,8.27
2023-03-06T10:41:36.028Z,10.15
2023-03-06T10:44:28.223Z,9.05
2023-03-06T10:46:57.701Z,9.90
2023-03-06T10:49:36.482Z,8.55
2023-03-06T10:52:09.064Z,10.20
2023-03-06T10:54:43.116Z,11.98
2023-03-06T10:57:28.177Z,11.75
2023-03-06T10:59:59.632Z,12.20
2023-03-06T11:02:36.815Z,10.30
2023-03-06T11:05:08.516Z,11.07
2023-03-06T11:07:43.040Z,10.38
2023-03-06T11:10:21.043Z,9.45
2023-03-06T11:13:01.609Z,10.48
2023-03-06T11:15:32.304Z,10.48
2023-03-06T11:18:05.700Z,8.20
2023-03-06T11:20:51.531Z,8.75
2023-03-06T11:23:32.617Z,10.20
2023-03-06T11:26:22.336Z,10.68
2023-03-06T11:29:04.688Z,9.32
2023-03-06T11:31:36.948Z,11.82
2023-03-06T11:34:17.816Z,10.15
2023-03-06T11:36:56.021Z,11.02
2023-03-06T11:39:36.546Z,10.20
2023-03-06T11:42:17.446Z,12.65
2023-03-06T11:45:00.302Z,14.80
2023-03-06T11:47:35.284Z,11.32
2023-03-06T11:50:21.164Z,12.52
2023-03-06T11:52:56.356Z,14.68
2023-03-06T11:55:46.790Z,10.68
2023-03-06T11:59:08.283Z,12.32
2023-03-06T12:01:43.077Z,10.90
2023-03-06T12:04:40.352Z,15.43
2023-03-06T12:07:23.304Z,13.48
2023-03-06T12:12:57.757Z,9.75
2023-03-06T12:15:52.430Z,10.55
2023-03-06T12:18:36.818Z,12.98
2023-03-06T12:21:14.073Z,10.60
2023-03-06T12:24:12.813Z,10.27
2023-03-06T12:27:02.348Z,10.73
2023-03-06T12:29:53.326Z,9.95
2023-03-06T12:32:40.844Z,8.45
2023-03-06T12:35:43.574Z,9.30
2023-03-06T12:38:53.956Z,9.98
2023-03-06T12:41:45.214Z,9.60
2023-03-06T12:44:44.564Z,11.32
2023-03-06T12:47:18.763Z,10.38
2023-03-06T12:51:30.330Z,9.15
2023-03-06T12:54:01.777Z,7.90
2023-03-06T12:56:33.478Z,8.77
2023-03-06T12:59:03.625Z,10.02
2023-03-06T13:02:03.133Z,7.50
2023-03-06T13:04:53.430Z,9.98
2023-03-06T13:07:49.466Z,9.00
2023-03-06T13:10:27.173Z,8.73
2023-03-06T13:13:00.987Z,8.63
2023-03-06T13:15:41.550Z,9.02
2023-03-06T13:19:03.170Z,9.52
2023-03-06T13:22:04.661Z,76.85
2023-03-06T13:24:38.440Z,9.18
2023-03-06T13:27:11.724Z,9.82
2023-03-06T13:30:23.591Z,8.38
2023-03-06T13:32:54.385Z,8.65
2023-03-06T13:35:57.848Z,8.02
2023-03-06T13:38:37.896Z,9.85
2023-03-06T13:41:44.079Z,12.13
2023-03-06T13:44:51.193Z,12.70
2023-03-06T13:48:10.672Z,14.13
2023-03-06T13:50:40.422Z,10.88
2023-03-06T13:54:04.708Z,12.07
2023-03-06T13:57:26.409Z,11.45
2023-03-06T14:00:34.255Z,9.07
2023-03-06T14:03:48.631Z,9.13
2023-03-06T14:07:01.506Z,11.10
2023-03-06T14:09:35.907Z,8.98
2023-03-06T14:12:15.675Z,10.85
2023-03-06T14:14:52.723Z,11.85
2023-03-06T14:17:30.445Z,11.63
2023-03-06T14:20:09.965Z,15.35
2023-03-06T14:22:39.409Z,8.55
2023-03-06T14:25:18.893Z,11.75
2023-03-06T14:27:53.522Z,18.58
2023-03-06T14:30:26.940Z,12.27
2023-03-06T14:32:57.765Z,12.57
2023-03-06T14:35:31.746Z,13.75
2023-03-06T14:38:06.290Z,12.55
2023-03-06T14:40:42.506Z,13.82
2023-03-06T14:43:21.908Z,16.60
2023-03-06T14:45:57.949Z,15.63
2023-03-06T14:48:39.818Z,16.98
2023-03-06T14:51:16.763Z,14.80
2023-03-06T14:53:48.743Z,14.45
2023-03-06T14:56:21.938Z,18.13
2023-03-06T14:58:57.356Z,17.80
2023-03-06T15:01:37.783Z,11.27
2023-03-06T15:04:20.032Z,13.02
2023-03-06T15:06:49.531Z,17.53
2023-03-06T15:09:24.517Z,11.55
2023-03-06T15:11:57.616Z,12.48
2023-03-06T15:14:35.018Z,12.70
2023-03-06T15:17:30.051Z,13.68
2023-03-06T15:20:01.765Z,11.60
2023-03-06T15:22:38.004Z,12.13
2023-03-06T15:25:24.236Z,11.55
2023-03-06T15:28:04.107Z,12.55
2023-03-06T15:30:35.680Z,11.10
2023-03-06T15:33:24.267Z,9.43
2023-03-06T15:35:58.413Z,10.73
2023-03-06T15:38:36.948Z,11.07
2023-03-06T15:41:08.733Z,13.77
2023-03-06T15:43:41.510Z,10.47
2023-03-06T15:51:30.050Z,9.52
2023-03-06T15:54:11.246Z,10.52
2023-03-06T15:56:43.411Z,11.60
2023-03-06T15:59:21.810Z,14.95
2023-03-06T16:01:52.536Z,12.25
2023-03-06T16:04:22.201Z,10.65
2023-03-06T16:06:53.265Z,9.05
2023-03-06T16:09:23.252Z,9.95
2023-03-06T16:11:52.706Z,9.73
2023-03-06T16:14:24.213Z,11.48
2023-03-06T16:16:54.987Z,10.35
2023-03-06T16:19:27.554Z,11.23
2023-03-06T16:22:00.020Z,8.82
2023-03-06T16:24:29.460Z,10.30
2023-03-06T16:27:02.743Z,10.32
2023-03-06T16:29:32.905Z,11.30
2023-03-06T16:32:02.632Z,9.52
2023-03-06T16:34:32.111Z,11.15
2023-03-06T16:37:02.968Z,10.52
2023-03-06T16:39:32.445Z,10.30
2023-03-06T16:42:01.675Z,10.35
2023-03-06T16:44:31.289Z,11.73
2023-03-06T16:47:03.200Z,14.20
2023-03-06T16:49:32.458Z,14.57
2023-03-06T16:52:04.739Z,11.65
2023-03-06T16:54:34.320Z,13.77
2023-03-06T16:57:03.652Z,12.30
2023-03-06T16:59:33.116Z,14.65
2023-03-06T17:02:02.462Z,15.25
2023-03-06T17:04:31.811Z,12.00
2023-03-06T17:07:02.657Z,15.27
2023-03-06T17:09:31.912Z,14.38
2023-03-06T17:12:01.377Z,12.93
2023-03-06T17:14:31.197Z,15.80
2023-03-06T17:17:00.540Z,11.73
2023-03-06T17:19:30.994Z,12.50
2023-03-06T17:22:01.730Z,12.70
2023-03-06T17:24:31.076Z,11.88
2023-03-06T17:27:00.493Z,12.20
2023-03-06T17:29:29.872Z,10.98
2023-03-06T17:31:59.220Z,12.93
2023-03-06T17:34:29.552Z,11.40
2023-03-06T17:36:59.025Z,14.70
2023-03-06T17:39:34.612Z,11.15
2023-03-06T17:42:04.134Z,11.18
2023-03-06T17:44:34.590Z,11.85
2023-03-06T17:47:04.354Z,17.63
2023-03-06T17:49:34.200Z,13.10
2023-03-06T17:52:05.867Z,14.77
2023-03-06T17:54:36.711Z,15.15
2023-03-06T17:57:06.834Z,14.68
2023-03-06T17:59:36.249Z,17.25
2023-03-06T18:02:06.684Z,14.38
2023-03-06T18:04:36.114Z,11.70
2023-03-06T18:07:05.705Z,13.43
2023-03-06T18:09:36.387Z,30.25
2023-03-06T18:12:06.169Z,21.23
2023-03-06T18:14:37.247Z,14.52
2023-03-06T18:17:06.706Z,40.78
2023-03-06T18:19:36.082Z,16.35
2023-03-06T18:22:05.524Z,16.52
2023-03-06T18:24:38.967Z,21.10
2023-03-06T18:27:08.379Z,21.55
2023-03-06T18:29:37.784Z,25.52
2023-03-06T18:32:09.462Z,27.88
2023-03-06T18:34:39.493Z,22.65
2023-03-06T18:37:08.923Z,16.40
2023-03-06T18:39:39.662Z,19.73
2023-03-06T18:42:09.767Z,20.75
2023-03-06T18:44:39.174Z,21.05
2023-03-06T18:47:08.670Z,22.85
2023-03-06T18:51:30.173Z,19.45
2023-03-06T18:53:59.786Z,24.75
2023-03-06T18:56:29.347Z,22.23
2023-03-06T18:59:01.798Z,24.70
2023-03-06T19:01:31.543Z,26.17
2023-03-06T19:04:03.509Z,22.45
2023-03-06T19:06:34.769Z,24.97
2023-03-06T19:09:04.240Z,26.67
2023-03-06T19:11:34.414Z,20.77
2023-03-06T19:14:03.902Z,23.13
2023-03-06T19:16:33.446Z,22.10
2023-03-06T19:19:02.814Z,27.60
2023-03-06T19:21:33.624Z,28.38
2023-03-06T19:24:04.721Z,26.20
2023-03-06T19:26:34.180Z,22.48
2023-03-06T19:29:04.078Z,26.27
2023-03-06T19:31:33.535Z,25.70
2023-03-06T19:34:02.921Z,29.48
2023-03-06T19:36:34.489Z,22.95
2023-03-06T19:39:07.180Z,28.55
2023-03-06T19:41:36.908Z,20.75
2023-03-06T19:44:07.006Z,32.42
2023-03-06T19:46:36.432Z,25.30
2023-03-06T19:49:11.939Z,25.42
2023-03-06T19:51:42.739Z,19.35
2023-03-06T19:54:13.826Z,24.10
2023-03-06T19:56:43.140Z,29.70
2023-03-06T19:59:12.683Z,25.55
2023-03-06T20:01:42.350Z,25.52
2023-03-06T20:04:11.901Z,18.15
2023-03-06T20:06:45.579Z,19.90
2023-03-06T20:09:15.267Z,30.75
2023-03-06T20:11:44.688Z,32.70
2023-03-06T20:14:18.551Z,41.65
2023-03-06T20:16:47.914Z,25.52
2023-03-06T20:19:17.935Z,29.88
2023-03-06T20:21:48.939Z,32.15
2023-03-06T20:24:19.409Z,23.30
2023-03-06T20:26:51.361Z,18.02
2023-03-06T20:29:20.750Z,25.20
2023-03-06T20:31:50.036Z,33.55
2023-03-06T20:34:19.607Z,26.08
2023-03-06T20:36:50.359Z,31.58
2023-03-06T20:39:22.625Z,20.55
2023-03-06T20:41:52.508Z,15.57
2023-03-06T20:44:23.232Z,26.38
2023-03-06T20:46:53.265Z,24.05
2023-03-06T20:49:23.028Z,26.48
2023-03-06T20:51:53.830Z,29.10
2023-03-06T20:54:23.317Z,27.85
2023-03-06T20:56:52.791Z,28.15
2023-03-06T20:59:22.113Z,25.58
2023-03-06T21:01:51.640Z,21.05
2023-03-06T21:04:21.069Z,21.98
2023-03-06T21:06:50.480Z,26.27
2023-03-06T21:09:21.375Z,28.33
2023-03-06T21:11:50.873Z,28.10
2023-03-06T21:14:20.310Z,32.67
2023-03-06T21:16:49.611Z,30.27
2023-03-06T21:19:20.310Z,23.17
2023-03-06T21:21:50.453Z,25.75
2023-03-06T21:24:21.483Z,25.33
2023-03-06T21:26:51.481Z,23.08
2023-03-06T21:29:20.775Z,22.20
2023-03-06T21:31:50.252Z,18.13
2023-03-06T21:34:19.630Z,17.70
2023-03-06T21:36:49.013Z,16.13
2023-03-06T21:39:21.212Z,14.85
2023-03-06T21:41:50.613Z,16.27
2023-03-06T21:44:20.019Z,11.73
2023-03-06T21:46:49.318Z,14.50
2023-03-06T21:51:29.935Z,14.10
2023-03-06T21:53:59.341Z,13.95
2023-03-06T21:56:28.754Z,13.88
2023-03-06T21:58:58.885Z,11.68
2023-03-06T22:01:30.250Z,15.52
2023-03-06T22:04:01.287Z,11.55
2023-03-06T22:06:33.058Z,14.63
2023-03-06T22:09:04.537Z,13.50
2023-03-06T22:11:37.503Z,12.35
2023-03-06T22:14:07.251Z,12.18
2023-03-06T22:16:36.696Z,12.60
2023-03-06T22:19:06.307Z,12.65
2023-03-06T22:21:37.137Z,13.63
2023-03-06T22:24:07.713Z,11.90
2023-03-06T22:26:37.212Z,12.48
2023-03-06T22:29:06.492Z,13.43
2023-03-06T22:31:36.099Z,14.18
2023-03-06T22:34:05.511Z,13.73
2023-03-06T22:36:36.415Z,16.02
2023-03-06T22:39:06.508Z,15.57
2023-03-06T22:41:35.847Z,12.40
2023-03-06T22:44:05.430Z,13.00
2023-03-06T22:46:35.745Z,12.85
2023-03-06T22:49:05.343Z,11.77
2023-03-06T22:51:37.727Z,11.18
2023-03-06T22:54:08.437Z,10.57
2023-03-06T22:56:38.219Z,10.48
2023-03-06T22:59:08.213Z,11.95
2023-03-06T23:01:37.891Z,12.73
2023-03-06T23:04:11.406Z,12.10
2023-03-06T23:06:44.837Z,11.88
2023-03-06T23:09:18.410Z,12.63
2023-03-06T23:11:47.871Z,10.40
2023-03-06T23:14:19.201Z,13.57
2023-03-06T23:16:48.873Z,9.88
2023-03-06T23:19:18.671Z,10.75
2023-03-06T23:21:49.952Z,13.63
2023-03-06T23:24:19.333Z,11.25
2023-03-06T23:26:48.683Z,10.50
2023-03-06T23:29:18.068Z,13.63
2023-03-06T23:31:47.762Z,13.75
2023-03-06T23:34:17.132Z,10.07
2023-03-06T23:36:47.971Z,18.63
2023-03-06T23:39:17.474Z,17.23
2023-03-06T23:41:46.979Z,17.75
2023-03-06T23:44:16.333Z,18.02
2023-03-06T23:46:45.710Z,17.48
2023-03-06T23:49:15.293Z,14.90
2023-03-06T23:51:44.840Z,12.95
2023-03-06T23:54:15.732Z,13.85
2023-03-06T23:56:45.001Z,13.52
2023-03-06T23:59:14.496Z,14.57
